Terminal Aerodrome Forecast
Issued by NWS

Home | Current Version | Previous Version | Text Only | Print | Product List | Glossary On
Versions: 1 2 3 4 5 6 7 8 9 10 11 12 13 14 15 16 17
621
FTAK31 PAJN 251744
TAFAYA
TAF
PAYA 251744Z 2518/2618 15005KT P6SM BKN040 BKN080 OVC120
     FM252000 26005KT P6SM BKN080 BKN120
     FM260200 VRB03KT P6SM SCT080 BKN120
      AMD LTD TO CLD VIS AND WIND 2601/2609=

USA.gov is the U.S. government's official web portal to all federal, state and local government web resources and services.